createdAt,value
2023-04-21T00:00:10.962Z,22.70
2023-04-21T00:02:41.986Z,23.07
2023-04-21T00:05:11.109Z,22.57
2023-04-21T00:07:40.697Z,23.77
2023-04-21T00:10:12.099Z,22.37
2023-04-21T00:12:39.770Z,23.97
2023-04-21T00:15:08.004Z,23.07
2023-04-21T00:17:35.430Z,25.43
2023-04-21T00:20:02.759Z,24.60
2023-04-21T00:22:30.221Z,24.37
2023-04-21T00:24:57.596Z,24.97
2023-04-21T00:27:24.830Z,24.33
2023-04-21T00:29:52.018Z,24.93
2023-04-21T00:32:19.413Z,26.87
2023-04-21T00:34:47.023Z,26.53
2023-04-21T00:37:14.237Z,24.60
2023-04-21T00:39:41.661Z,26.40
2023-04-21T00:42:08.885Z,24.73
2023-04-21T00:44:36.361Z,26.00
2023-04-21T00:47:03.623Z,26.23
2023-04-21T00:49:30.947Z,26.33
2023-04-21T00:52:04.442Z,25.17
2023-04-21T00:54:32.808Z,24.87
2023-04-21T00:57:02.932Z,23.23
2023-04-21T00:59:31.235Z,25.10
2023-04-21T01:01:58.711Z,23.90
2023-04-21T01:04:26.193Z,24.80
2023-04-21T01:06:53.561Z,26.40
2023-04-21T01:09:22.195Z,24.07
2023-04-21T01:12:07.354Z,23.50
2023-04-21T01:14:35.674Z,24.63
2023-04-21T01:17:06.402Z,24.33
2023-04-21T01:19:42.036Z,24.80
2023-04-21T01:22:11.912Z,24.57
2023-04-21T01:24:42.382Z,24.33
2023-04-21T01:27:21.743Z,23.60
2023-04-21T01:29:52.785Z,23.10
2023-04-21T01:32:31.925Z,25.43
2023-04-21T01:35:00.767Z,26.97
2023-04-21T01:37:32.052Z,24.87
2023-04-21T01:40:05.601Z,27.03
2023-04-21T01:42:34.658Z,25.30
2023-04-21T01:45:05.756Z,27.83
2023-04-21T01:47:33.260Z,28.97
2023-04-21T01:50:00.579Z,25.33
2023-04-21T01:52:27.929Z,28.00
2023-04-21T01:54:55.585Z,25.90
2023-04-21T01:57:22.789Z,26.17
2023-04-21T01:59:50.212Z,24.93
2023-04-21T02:02:17.558Z,27.10
2023-04-21T02:04:44.955Z,25.97
2023-04-21T02:07:12.416Z,24.53
2023-04-21T02:09:39.525Z,26.47
2023-04-21T02:12:07.089Z,24.73
2023-04-21T02:14:34.196Z,25.93
2023-04-21T02:17:03.865Z,24.40
2023-04-21T02:19:31.576Z,27.47
2023-04-21T02:21:58.906Z,25.33
2023-04-21T02:24:26.393Z,24.03
2023-04-21T02:26:53.696Z,27.03
2023-04-21T02:29:21.349Z,30.07
2023-04-21T02:32:00.629Z,27.43
2023-04-21T02:34:30.762Z,27.83
2023-04-21T02:37:01.311Z,28.37
2023-04-21T02:39:28.575Z,29.37
2023-04-21T02:41:55.907Z,26.53
2023-04-21T02:44:23.265Z,27.37
2023-04-21T02:46:50.696Z,27.20
2023-04-21T02:49:18.199Z,27.43
2023-04-21T02:51:45.679Z,26.73
2023-04-21T02:54:13.074Z,30.90
2023-04-21T02:56:40.422Z,30.30
2023-04-21T02:59:07.743Z,29.27
2023-04-21T03:01:34.962Z,31.97
2023-04-21T03:04:02.729Z,29.53
2023-04-21T03:06:30.062Z,30.93
2023-04-21T03:08:57.468Z,31.70
2023-04-21T03:11:24.872Z,32.67
2023-04-21T03:13:52.330Z,30.03
2023-04-21T03:16:20.208Z,31.30
2023-04-21T03:18:47.482Z,32.90
2023-04-21T03:21:14.768Z,32.40
2023-04-21T03:23:42.504Z,31.93
2023-04-21T03:26:09.810Z,35.30
2023-04-21T03:28:37.167Z,30.90
2023-04-21T03:31:04.434Z,36.40
2023-04-21T03:33:31.712Z,32.53
2023-04-21T03:35:59.820Z,35.77
2023-04-21T03:38:30.200Z,35.50
2023-04-21T03:40:57.606Z,34.90
2023-04-21T03:43:24.956Z,33.30
2023-04-21T03:45:52.336Z,31.63
2023-04-21T03:48:19.955Z,31.30
2023-04-21T03:50:47.329Z,31.43
2023-04-21T03:53:14.596Z,34.80
2023-04-21T03:55:42.111Z,37.10
2023-04-21T03:58:09.498Z,32.57
2023-04-21T04:00:36.641Z,33.90
2023-04-21T04:03:07.841Z,31.87
2023-04-21T04:05:36.898Z,34.00
2023-04-21T04:08:04.553Z,37.03
2023-04-21T04:10:31.749Z,35.00
2023-04-21T04:12:58.970Z,35.10
2023-04-21T04:15:26.360Z,36.47
2023-04-21T04:17:53.876Z,33.07
2023-04-21T04:20:21.267Z,34.23
2023-04-21T04:22:48.507Z,34.27
2023-04-21T04:25:17.191Z,33.97
2023-04-21T04:27:45.266Z,35.93
2023-04-21T04:30:14.149Z,36.90
2023-04-21T04:32:44.002Z,32.00
2023-04-21T04:35:13.134Z,35.83
2023-04-21T04:37:41.391Z,34.27
2023-04-21T04:40:10.663Z,35.63
2023-04-21T04:42:40.480Z,31.83
2023-04-21T04:45:09.682Z,30.50
2023-04-21T04:47:37.474Z,31.40
2023-04-21T04:50:06.645Z,28.60
2023-04-21T04:52:34.277Z,32.27
2023-04-21T04:55:01.601Z,32.50
2023-04-21T04:57:28.911Z,34.30
2023-04-21T04:59:56.643Z,33.00
2023-04-21T05:02:24.748Z,33.13
2023-04-21T05:04:52.418Z,31.90
2023-04-21T05:07:19.849Z,30.63
2023-04-21T05:09:47.411Z,31.47
2023-04-21T05:12:14.981Z,29.13
2023-04-21T05:14:42.335Z,30.73
2023-04-21T05:17:09.808Z,33.93
2023-04-21T05:19:39.872Z,32.10
2023-04-21T05:22:07.183Z,32.27
2023-04-21T05:24:38.399Z,31.37
2023-04-21T05:27:05.644Z,31.17
2023-04-21T05:29:34.697Z,32.63
2023-04-21T05:32:02.279Z,30.60
2023-04-21T05:34:29.654Z,31.90
2023-04-21T05:36:56.924Z,33.80
2023-04-21T05:39:24.194Z,29.33
2023-04-21T05:41:51.584Z,32.67
2023-04-21T05:44:19.267Z,28.53
2023-04-21T05:46:46.717Z,30.63
2023-04-21T05:49:14.075Z,31.93
2023-04-21T05:51:41.738Z,32.43
2023-04-21T05:54:08.987Z,33.50
2023-04-21T05:56:36.244Z,31.87
2023-04-21T05:59:04.030Z,30.93
2023-04-21T06:01:31.282Z,31.50
2023-04-21T06:03:58.782Z,28.83
2023-04-21T06:06:29.559Z,30.87
2023-04-21T06:08:56.835Z,29.53
2023-04-21T06:11:24.527Z,29.40
2023-04-21T06:13:53.937Z,31.40
2023-04-21T06:16:21.429Z,26.07
2023-04-21T06:18:48.694Z,29.80
2023-04-21T06:21:16.187Z,32.47
2023-04-21T06:23:43.518Z,29.77
2023-04-21T06:26:10.872Z,30.00
2023-04-21T06:28:39.422Z,29.53
2023-04-21T06:31:09.016Z,28.73
2023-04-21T06:33:37.410Z,29.33
2023-04-21T06:36:05.330Z,28.27
2023-04-21T06:38:32.552Z,28.63
2023-04-21T06:40:59.914Z,30.10
2023-04-21T06:43:27.172Z,29.60
2023-04-21T06:45:54.667Z,27.20
2023-04-21T06:48:22.036Z,30.40
2023-04-21T06:50:49.395Z,29.40
2023-04-21T06:53:18.339Z,26.40
2023-04-21T06:55:45.859Z,25.93
2023-04-21T06:58:13.186Z,26.80
2023-04-21T07:00:40.628Z,26.27
2023-04-21T07:03:08.022Z,25.83
2023-04-21T07:05:35.406Z,23.87
2023-04-21T07:08:06.001Z,24.10
2023-04-21T07:10:33.276Z,23.63
2023-04-21T07:13:00.604Z,23.10
2023-04-21T07:15:27.998Z,23.97
2023-04-21T07:17:55.316Z,23.17
2023-04-21T07:20:22.839Z,24.30
2023-04-21T07:23:08.909Z,23.63
2023-04-21T07:25:37.004Z,22.90
2023-04-21T07:28:05.489Z,21.43
2023-04-21T07:30:33.299Z,21.47
2023-04-21T07:33:00.909Z,21.60
2023-04-21T07:35:28.323Z,20.17
2023-04-21T07:37:55.827Z,20.83
2023-04-21T07:40:23.101Z,20.40
2023-04-21T07:42:50.606Z,19.97
2023-04-21T07:45:18.195Z,19.80
2023-04-21T07:47:46.880Z,20.27
2023-04-21T07:50:17.218Z,19.37
2023-04-21T07:52:44.553Z,20.10
2023-04-21T07:55:11.862Z,19.77
2023-04-21T07:57:41.667Z,20.50
2023-04-21T08:00:10.503Z,20.97
2023-04-21T08:02:38.140Z,19.87
2023-04-21T08:05:06.284Z,19.43
2023-04-21T08:07:33.731Z,19.77
2023-04-21T08:10:00.979Z,18.43
2023-04-21T08:12:28.329Z,19.07
2023-04-21T08:14:58.268Z,18.43
2023-04-21T08:17:29.423Z,18.80
2023-04-21T08:19:57.966Z,21.43
2023-04-21T08:22:26.867Z,21.67
2023-04-21T08:24:54.411Z,21.17
2023-04-21T08:27:21.720Z,21.20
2023-04-21T08:29:51.175Z,20.80
2023-04-21T08:32:55.838Z,22.63
2023-04-21T08:35:23.302Z,23.30
2023-04-21T08:37:51.680Z,22.40
2023-04-21T08:40:23.374Z,21.93
2023-04-21T08:42:50.638Z,22.43
2023-04-21T08:45:17.924Z,22.60
2023-04-21T08:47:46.673Z,20.67
2023-04-21T08:50:14.894Z,21.83
2023-04-21T08:52:42.140Z,22.03
2023-04-21T08:55:11.931Z,21.07
2023-04-21T08:57:39.174Z,20.27
2023-04-21T09:00:08.306Z,22.50
2023-04-21T09:03:01.286Z,21.77
2023-04-21T09:05:42.618Z,23.50
2023-04-21T09:08:18.702Z,23.00
2023-04-21T09:10:49.394Z,22.67
2023-04-21T09:13:18.765Z,23.20
2023-04-21T09:15:52.491Z,23.37
2023-04-21T09:18:26.463Z,23.73
2023-04-21T09:21:09.670Z,25.10
2023-04-21T09:23:57.286Z,25.67
2023-04-21T09:26:24.557Z,24.27
2023-04-21T09:28:53.251Z,24.13
2023-04-21T09:31:28.969Z,23.97
2023-04-21T09:34:00.782Z,25.63
2023-04-21T09:36:32.169Z,21.23
2023-04-21T09:41:34.532Z,23.60
2023-04-21T09:44:04.235Z,21.93
2023-04-21T09:46:37.049Z,23.37
2023-04-21T09:49:06.073Z,23.30
2023-04-21T09:54:29.809Z,22.70
2023-04-21T09:57:02.399Z,21.83
2023-04-21T09:59:41.179Z,21.50
2023-04-21T10:02:11.303Z,20.83
2023-04-21T10:04:45.297Z,20.27
2023-04-21T10:07:16.602Z,20.07
2023-04-21T10:09:56.561Z,20.13
2023-04-21T10:12:27.708Z,19.77
2023-04-21T10:14:57.091Z,18.50
2023-04-21T10:17:27.577Z,18.37
2023-04-21T10:19:58.782Z,18.30
2023-04-21T10:22:34.467Z,18.17
2023-04-21T10:25:04.799Z,17.53
2023-04-21T10:27:32.931Z,17.17
2023-04-21T10:30:00.928Z,16.10
2023-04-21T10:32:44.389Z,17.07
2023-04-21T10:35:22.048Z,15.67
2023-04-21T10:37:52.158Z,15.77
2023-04-21T10:40:43.228Z,16.47
2023-04-21T10:43:49.692Z,16.87
2023-04-21T10:46:45.379Z,17.30
2023-04-21T10:49:30.387Z,15.63
2023-04-21T10:52:03.303Z,17.00
2023-04-21T10:54:46.251Z,16.97
2023-04-21T10:57:22.617Z,15.63
2023-04-21T10:59:50.159Z,16.20
2023-04-21T11:02:21.068Z,15.63
2023-04-21T11:04:53.175Z,14.70
2023-04-21T11:07:27.293Z,16.03
2023-04-21T11:10:06.741Z,16.50
2023-04-21T11:12:38.762Z,16.00
2023-04-21T11:15:13.371Z,15.80
2023-04-21T11:17:43.649Z,14.57
2023-04-21T11:20:11.217Z,15.03
2023-04-21T11:22:39.002Z,13.60
2023-04-21T11:25:16.507Z,15.13
2023-04-21T11:27:54.376Z,15.47
2023-04-21T11:30:22.613Z,14.10
2023-04-21T11:32:56.204Z,14.53
2023-04-21T11:35:26.520Z,13.90
2023-04-21T11:37:56.082Z,14.03
2023-04-21T11:40:23.405Z,13.83
2023-04-21T11:42:51.139Z,13.13
2023-04-21T11:45:22.124Z,13.37
2023-04-21T11:47:49.881Z,13.40
2023-04-21T11:50:32.876Z,13.20
2023-04-21T11:53:02.834Z,14.70
2023-04-21T11:55:30.140Z,14.90
2023-04-21T11:57:58.027Z,12.40
2023-04-21T12:00:31.575Z,11.70
2023-04-21T12:02:59.132Z,12.93
2023-04-21T12:05:35.058Z,11.47
2023-04-21T12:08:04.041Z,11.47
2023-04-21T12:10:31.245Z,12.30
2023-04-21T12:13:01.207Z,13.30
2023-04-21T12:15:30.945Z,13.60
2023-04-21T12:17:58.186Z,13.03
2023-04-21T12:20:29.931Z,13.50
2023-04-21T12:22:57.452Z,13.07
2023-04-21T12:25:25.332Z,12.63
2023-04-21T12:27:58.021Z,12.80
2023-04-21T12:30:25.624Z,12.60
2023-04-21T12:32:54.473Z,14.20
2023-04-21T12:35:23.701Z,17.47
2023-04-21T12:37:51.274Z,17.13
2023-04-21T12:40:19.183Z,17.07
2023-04-21T12:42:46.635Z,16.77
2023-04-21T12:45:14.099Z,16.23
2023-04-21T12:47:43.603Z,16.27
2023-04-21T12:50:13.726Z,16.63
2023-04-21T12:52:41.158Z,17.23
2023-04-21T12:55:09.084Z,15.67
2023-04-21T12:57:36.296Z,17.67
2023-04-21T13:00:04.502Z,18.13
2023-04-21T13:02:37.251Z,19.10
2023-04-21T13:05:09.782Z,19.00
2023-04-21T13:07:37.363Z,18.73
2023-04-21T13:10:06.826Z,20.87
2023-04-21T13:12:34.313Z,21.50
2023-04-21T13:15:01.554Z,19.80
2023-04-21T13:17:29.464Z,20.63
2023-04-21T13:20:15.467Z,20.67
2023-04-21T13:22:42.720Z,19.80
2023-04-21T13:25:10.471Z,20.03
2023-04-21T13:27:40.120Z,20.40
2023-04-21T13:30:11.912Z,20.30
2023-04-21T13:32:40.094Z,21.13
2023-04-21T13:35:10.652Z,19.50
2023-04-21T13:37:39.226Z,19.67
2023-04-21T13:40:10.509Z,18.73
2023-04-21T13:42:39.314Z,18.80
2023-04-21T13:45:10.429Z,18.97
2023-04-21T13:47:37.758Z,18.67
2023-04-21T13:50:05.861Z,18.67
2023-04-21T13:52:35.047Z,17.07
2023-04-21T13:55:02.327Z,17.07
2023-04-21T13:57:29.463Z,17.83
2023-04-21T13:59:56.765Z,16.13
2023-04-21T14:02:25.866Z,16.33
2023-04-21T14:04:54.534Z,13.67
2023-04-21T14:07:23.511Z,14.70
2023-04-21T14:09:52.337Z,11.73
2023-04-21T14:12:19.658Z,11.80
2023-04-21T14:14:47.487Z,12.27
2023-04-21T14:17:16.851Z,12.40
2023-04-21T14:19:44.348Z,12.07
2023-04-21T14:22:11.689Z,12.80
2023-04-21T14:24:38.827Z,15.07
2023-04-21T14:27:06.317Z,15.87
2023-04-21T14:29:33.800Z,15.37
2023-04-21T14:32:02.416Z,13.57
2023-04-21T14:34:29.728Z,13.77
2023-04-21T14:36:57.413Z,12.90
2023-04-21T14:39:24.772Z,10.47
2023-04-21T14:41:51.980Z,10.93
2023-04-21T14:44:19.394Z,8.70
2023-04-21T14:47:00.961Z,8.20
2023-04-21T14:49:33.543Z,7.93
2023-04-21T14:52:02.016Z,7.23
2023-04-21T14:54:29.234Z,7.17
2023-04-21T14:57:10.488Z,7.67
2023-04-21T14:59:46.750Z,8.67
2023-04-21T15:02:14.536Z,8.60
2023-04-21T15:04:42.318Z,9.30
2023-04-21T15:07:12.629Z,9.17
2023-04-21T15:09:40.102Z,8.70
2023-04-21T15:12:07.668Z,9.70
2023-04-21T15:14:34.987Z,9.33
2023-04-21T15:17:02.432Z,9.00
2023-04-21T15:19:29.960Z,8.90
2023-04-21T15:21:57.994Z,9.07
2023-04-21T15:24:25.460Z,9.30
2023-04-21T15:26:52.689Z,8.83
2023-04-21T15:29:22.410Z,9.80
2023-04-21T15:31:49.744Z,8.97
2023-04-21T15:34:17.184Z,8.60
2023-04-21T15:36:47.511Z,8.77
2023-04-21T15:39:14.819Z,8.77
2023-04-21T15:41:42.699Z,8.33
2023-04-21T15:44:11.793Z,8.53
2023-04-21T15:46:39.066Z,8.73
2023-04-21T15:49:06.536Z,7.97
2023-04-21T15:51:38.351Z,8.47
2023-04-21T15:54:10.142Z,8.97
2023-04-21T15:56:37.501Z,8.13
2023-04-21T15:59:05.256Z,8.20
2023-04-21T16:01:32.532Z,7.93
2023-04-21T16:04:00.131Z,8.10
2023-04-21T16:06:31.155Z,8.00
2023-04-21T16:08:59.423Z,8.53
2023-04-21T16:11:29.480Z,7.20
2023-04-21T16:13:57.127Z,7.87
2023-04-21T16:16:24.584Z,7.73
2023-04-21T16:18:52.078Z,6.87
2023-04-21T16:21:20.164Z,6.60
2023-04-21T16:23:48.394Z,6.80
2023-04-21T16:26:15.986Z,6.50
2023-04-21T16:28:46.444Z,7.30
2023-04-21T16:31:13.872Z,7.17
2023-04-21T16:33:42.146Z,7.63
2023-04-21T16:36:09.613Z,7.50
2023-04-21T16:38:37.037Z,6.50
2023-04-21T16:41:04.243Z,3.23
2023-04-21T16:43:33.655Z,7.80
2023-04-21T16:46:00.809Z,3.63
2023-04-21T16:48:28.423Z,2.57
2023-04-21T16:50:55.627Z,2.00
2023-04-21T16:53:25.626Z,1.60
2023-04-21T16:55:53.168Z,1.83
2023-04-21T16:58:22.480Z,2.30
2023-04-21T17:00:50.017Z,3.57
2023-04-21T17:03:17.556Z,2.53
2023-04-21T17:05:45.174Z,2.13
2023-04-21T17:08:12.521Z,2.20
2023-04-21T17:10:42.362Z,2.30
2023-04-21T17:13:09.763Z,4.13
2023-04-21T17:15:37.328Z,3.67
2023-04-21T17:18:05.430Z,3.03
2023-04-21T17:20:32.861Z,3.53
2023-04-21T17:23:00.636Z,3.40
2023-04-21T17:25:27.857Z,2.70
2023-04-21T17:27:55.260Z,2.80
2023-04-21T17:30:23.527Z,3.23
2023-04-21T17:32:57.847Z,3.47
2023-04-21T17:35:36.127Z,3.47
2023-04-21T17:38:03.791Z,6.23
2023-04-21T17:40:31.374Z,3.57
2023-04-21T17:42:58.832Z,3.70
2023-04-21T17:45:26.784Z,3.50
2023-04-21T17:47:54.275Z,4.00
2023-04-21T17:50:23.362Z,3.30
2023-04-21T17:52:50.905Z,3.97
2023-04-21T17:55:18.370Z,3.87
2023-04-21T17:57:46.135Z,4.00
2023-04-21T18:00:16.358Z,3.80
2023-04-21T18:02:44.170Z,3.97
2023-04-21T18:05:14.121Z,4.47
2023-04-21T18:07:45.616Z,4.07
2023-04-21T18:10:13.090Z,4.13
2023-04-21T18:12:40.734Z,4.40
2023-04-21T18:15:09.550Z,4.40
2023-04-21T18:17:37.672Z,4.43
2023-04-21T18:20:09.039Z,4.13
2023-04-21T18:22:36.318Z,4.30
2023-04-21T18:25:04.307Z,4.43
2023-04-21T18:27:31.501Z,4.90
2023-04-21T18:29:58.849Z,5.33
2023-04-21T18:32:26.074Z,5.63
2023-04-21T18:35:08.083Z,5.60
2023-04-21T18:37:35.377Z,5.00
2023-04-21T18:40:02.887Z,5.20
2023-04-21T18:42:30.546Z,6.57
2023-04-21T18:44:58.480Z,4.60
2023-04-21T18:47:26.816Z,5.43
2023-04-21T18:49:54.078Z,5.40
2023-04-21T18:52:21.385Z,5.50
2023-04-21T18:54:48.703Z,5.30
2023-04-21T18:57:16.007Z,5.87
2023-04-21T18:59:43.482Z,6.27
2023-04-21T19:02:14.063Z,6.10
2023-04-21T19:04:44.078Z,5.47
2023-04-21T19:07:11.708Z,5.70
2023-04-21T19:09:39.188Z,6.40
2023-04-21T19:12:06.988Z,4.77
2023-04-21T19:14:45.541Z,5.47
2023-04-21T19:17:14.220Z,5.57
2023-04-21T19:19:42.581Z,7.00
2023-04-21T19:22:09.918Z,6.30
2023-04-21T19:24:37.821Z,5.13
2023-04-21T19:27:06.370Z,4.60
2023-04-21T19:29:36.625Z,4.97
2023-04-21T19:32:04.219Z,4.67
2023-04-21T19:34:31.670Z,5.30
2023-04-21T19:36:59.550Z,3.83
2023-04-21T19:39:26.782Z,4.00
2023-04-21T19:41:53.968Z,3.20
2023-04-21T19:44:21.176Z,3.40
2023-04-21T19:46:48.560Z,2.60
2023-04-21T19:49:16.025Z,2.40
2023-04-21T19:51:43.307Z,2.40
2023-04-21T19:54:12.328Z,2.33
2023-04-21T19:56:40.827Z,2.50
2023-04-21T19:59:08.259Z,2.27
2023-04-21T20:01:35.784Z,3.17
2023-04-21T20:04:04.668Z,3.67
2023-04-21T20:06:32.687Z,2.47
2023-04-21T20:08:59.938Z,2.93
2023-04-21T20:11:29.145Z,3.07
2023-04-21T20:13:56.646Z,2.57
2023-04-21T20:16:26.485Z,2.67
2023-04-21T20:18:57.872Z,2.50
2023-04-21T20:21:25.335Z,3.20
2023-04-21T20:23:53.135Z,4.77
2023-04-21T20:26:23.355Z,2.90
2023-04-21T20:28:53.491Z,2.63
2023-04-21T20:31:23.884Z,2.93
2023-04-21T20:33:51.344Z,3.30
2023-04-21T20:36:18.794Z,2.50
2023-04-21T20:38:46.651Z,3.03
2023-04-21T20:41:14.726Z,2.33
2023-04-21T20:43:41.941Z,2.23
2023-04-21T20:46:09.164Z,2.37
2023-04-21T20:48:36.597Z,2.60
2023-04-21T20:51:22.680Z,2.37
2023-04-21T20:53:50.129Z,2.30
2023-04-21T20:56:17.530Z,2.70
2023-04-21T20:58:45.218Z,2.40
2023-04-21T21:01:13.724Z,2.23
2023-04-21T21:03:41.989Z,1.93
2023-04-21T21:06:09.529Z,2.40
2023-04-21T21:08:37.212Z,2.63
2023-04-21T21:11:04.613Z,2.70
2023-04-21T21:13:32.073Z,2.37
2023-04-21T21:15:59.469Z,2.40
2023-04-21T21:18:26.865Z,3.27
2023-04-21T21:20:56.413Z,2.53
2023-04-21T21:23:23.610Z,3.23
2023-04-21T21:25:51.060Z,2.87
2023-04-21T21:28:19.352Z,3.00
2023-04-21T21:30:46.768Z,3.00
2023-04-21T21:33:14.152Z,3.40
2023-04-21T21:35:44.066Z,3.03
2023-04-21T21:38:12.119Z,3.40
2023-04-21T21:40:39.840Z,3.40
2023-04-21T21:43:07.814Z,3.40
2023-04-21T21:45:41.077Z,3.90
2023-04-21T21:48:08.799Z,3.20
2023-04-21T21:50:39.137Z,3.33
2023-04-21T21:53:06.481Z,3.50
2023-04-21T21:55:33.945Z,3.30
2023-04-21T21:58:03.788Z,3.53
2023-04-21T22:00:31.319Z,3.77
2023-04-21T22:02:59.677Z,3.33
2023-04-21T22:05:27.506Z,3.77
2023-04-21T22:08:00.215Z,3.67
2023-04-21T22:10:29.947Z,3.83
2023-04-21T22:12:57.332Z,7.50
2023-04-21T22:15:24.753Z,4.70
2023-04-21T22:17:52.205Z,4.90
2023-04-21T22:20:23.066Z,3.63
2023-04-21T22:22:50.268Z,4.17
2023-04-21T22:25:17.906Z,4.43
2023-04-21T22:27:45.249Z,4.30
2023-04-21T22:30:12.843Z,4.57
2023-04-21T22:32:40.140Z,4.40
2023-04-21T22:35:08.176Z,4.30
2023-04-21T22:37:35.550Z,4.23
2023-04-21T22:40:04.617Z,4.97
2023-04-21T22:42:32.148Z,4.70
2023-04-21T22:45:01.582Z,4.60
2023-04-21T22:47:29.162Z,4.37
2023-04-21T22:49:56.571Z,4.50
2023-04-21T22:52:26.816Z,4.50
2023-04-21T22:54:54.566Z,4.80
2023-04-21T22:57:22.174Z,4.63
2023-04-21T22:59:49.685Z,4.80
2023-04-21T23:02:17.608Z,4.80
2023-04-21T23:04:45.093Z,4.90
2023-04-21T23:07:12.243Z,5.80
2023-04-21T23:09:41.752Z,5.40
2023-04-21T23:12:09.244Z,6.17
2023-04-21T23:14:36.767Z,7.03
2023-04-21T23:17:04.050Z,6.30
2023-04-21T23:19:31.335Z,6.10
2023-04-21T23:21:58.793Z,6.03
2023-04-21T23:24:26.079Z,9.40
2023-04-21T23:26:53.404Z,7.73
2023-04-21T23:29:20.630Z,8.20
2023-04-21T23:31:50.367Z,9.70
2023-04-21T23:34:17.687Z,9.30
2023-04-21T23:37:30.207Z,8.70
2023-04-21T23:39:57.454Z,8.67
2023-04-21T23:42:24.800Z,7.73
2023-04-21T23:44:52.021Z,7.33
2023-04-21T23:47:19.500Z,6.67
2023-04-21T23:49:46.734Z,6.30
2023-04-21T23:52:15.128Z,5.93
2023-04-21T23:55:19.910Z,5.27
2023-04-21T23:57:47.188Z,4.93
